createdAt,value
2022-08-24T00:01:56.165Z,19.30
2022-08-24T00:04:24.449Z,19.00
2022-08-24T00:06:52.620Z,19.30
2022-08-24T00:09:20.656Z,19.27
2022-08-24T00:11:48.761Z,19.10
2022-08-24T00:14:18.192Z,19.90
2022-08-24T00:16:46.399Z,20.03
2022-08-24T00:19:14.713Z,19.77
2022-08-24T00:21:42.736Z,18.80
2022-08-24T00:24:11.421Z,19.10
2022-08-24T00:26:39.709Z,17.87
2022-08-24T00:29:07.953Z,17.53
2022-08-24T00:31:37.373Z,17.87
2022-08-24T00:34:05.805Z,17.50
2022-08-24T00:36:34.040Z,18.13
2022-08-24T00:39:02.480Z,18.40
2022-08-24T00:41:30.984Z,18.57
2022-08-24T00:44:01.486Z,19.07
2022-08-24T00:46:38.867Z,19.83
2022-08-24T00:49:14.056Z,19.00
2022-08-24T00:51:50.890Z,19.70
2022-08-24T00:54:20.341Z,21.47
2022-08-24T00:56:51.967Z,21.30
2022-08-24T00:59:23.991Z,20.07
2022-08-24T01:01:53.372Z,21.67
2022-08-24T01:04:29.762Z,20.23
2022-08-24T01:06:58.873Z,19.63
2022-08-24T01:13:10.678Z,19.77
2022-08-24T01:15:44.032Z,17.23
2022-08-24T01:18:34.366Z,17.07
2022-08-24T01:21:12.899Z,16.87
2022-08-24T01:23:44.636Z,16.63
2022-08-24T01:26:15.090Z,16.37
2022-08-24T01:28:46.758Z,15.63
2022-08-24T01:31:16.701Z,14.63
2022-08-24T01:33:44.766Z,14.67
2022-08-24T01:36:19.638Z,16.17
2022-08-24T01:38:50.280Z,14.70
2022-08-24T01:41:18.332Z,14.73
2022-08-24T01:43:46.745Z,15.40
2022-08-24T01:46:14.782Z,16.17
2022-08-24T01:48:42.862Z,15.07
2022-08-24T01:51:10.984Z,14.30
2022-08-24T01:53:40.033Z,14.60
2022-08-24T01:56:09.500Z,13.73
2022-08-24T01:58:37.494Z,15.20
2022-08-24T02:01:06.352Z,13.97
2022-08-24T02:03:34.413Z,13.70
2022-08-24T02:06:03.282Z,13.13
2022-08-24T02:08:34.411Z,13.23
2022-08-24T02:11:02.559Z,13.43
2022-08-24T02:13:32.127Z,13.43
2022-08-24T02:16:00.931Z,13.30
2022-08-24T02:18:29.026Z,13.43
2022-08-24T02:20:57.601Z,14.33
2022-08-24T02:23:25.626Z,13.40
2022-08-24T02:25:53.617Z,14.47
2022-08-24T02:28:21.690Z,13.73
2022-08-24T02:30:51.184Z,14.47
2022-08-24T02:33:19.258Z,13.87
2022-08-24T02:35:47.251Z,13.37
2022-08-24T02:38:15.252Z,14.57
2022-08-24T02:40:43.669Z,13.80
2022-08-24T02:43:11.740Z,12.90
2022-08-24T02:45:40.852Z,13.07
2022-08-24T02:48:10.538Z,14.03
2022-08-24T02:50:40.835Z,13.53
2022-08-24T02:53:08.902Z,12.83
2022-08-24T02:55:39.345Z,12.93
2022-08-24T02:58:07.397Z,13.50
2022-08-24T03:00:38.464Z,13.90
2022-08-24T03:03:07.665Z,12.10
2022-08-24T03:05:37.418Z,13.13
2022-08-24T03:08:06.489Z,13.60
2022-08-24T03:10:34.685Z,14.63
2022-08-24T03:13:03.549Z,13.90
2022-08-24T03:15:32.022Z,14.20
2022-08-24T03:18:00.106Z,15.13
2022-08-24T03:20:28.350Z,13.57
2022-08-24T03:22:57.746Z,14.60
2022-08-24T03:25:27.964Z,14.53
2022-08-24T03:27:55.961Z,14.80
2022-08-24T03:30:24.775Z,14.97
2022-08-24T03:32:53.138Z,14.53
2022-08-24T03:35:22.308Z,14.63
2022-08-24T03:37:50.554Z,14.97
2022-08-24T03:40:25.538Z,17.20
2022-08-24T03:42:54.279Z,16.47
2022-08-24T03:45:23.413Z,16.40
2022-08-24T03:47:52.034Z,16.97
2022-08-24T03:50:21.221Z,17.13
2022-08-24T03:52:49.445Z,17.63
2022-08-24T03:55:19.211Z,18.17
2022-08-24T03:57:47.249Z,20.73
2022-08-24T04:00:15.797Z,21.03
2022-08-24T04:02:44.371Z,20.67
2022-08-24T04:05:13.334Z,22.20
2022-08-24T04:07:41.348Z,22.13
2022-08-24T04:10:11.341Z,23.70
2022-08-24T04:12:41.071Z,23.93
2022-08-24T04:15:10.059Z,23.80
2022-08-24T04:17:38.062Z,23.53
2022-08-24T04:20:07.463Z,24.43
2022-08-24T04:22:36.348Z,23.40
2022-08-24T04:25:08.839Z,22.90
2022-08-24T04:27:38.510Z,24.33
2022-08-24T04:30:09.824Z,23.83
2022-08-24T04:32:42.538Z,24.10
2022-08-24T04:35:11.306Z,24.27
2022-08-24T04:37:39.306Z,24.47
2022-08-24T04:40:08.601Z,24.27
2022-08-24T04:42:37.347Z,23.87
2022-08-24T04:45:07.616Z,26.40
2022-08-24T04:47:35.634Z,25.37
2022-08-24T04:50:05.717Z,25.80
2022-08-24T04:52:33.750Z,25.93
2022-08-24T04:55:02.287Z,26.63
2022-08-24T04:57:30.342Z,25.70
2022-08-24T04:59:59.186Z,26.27
2022-08-24T05:02:28.880Z,27.30
2022-08-24T05:04:58.399Z,25.63
2022-08-24T05:07:26.787Z,25.57
2022-08-24T05:09:57.507Z,25.30
2022-08-24T05:12:27.218Z,25.00
2022-08-24T05:14:55.517Z,25.77
2022-08-24T05:17:23.516Z,25.20
2022-08-24T05:19:53.005Z,25.73
2022-08-24T05:22:21.341Z,25.13
2022-08-24T05:24:49.386Z,24.70
2022-08-24T05:27:19.132Z,25.27
2022-08-24T05:29:47.539Z,23.27
2022-08-24T05:32:17.680Z,22.97
2022-08-24T05:34:45.685Z,22.30
2022-08-24T05:37:15.131Z,22.43
2022-08-24T05:39:43.204Z,21.10
2022-08-24T05:42:11.280Z,20.77
2022-08-24T05:44:39.301Z,20.00
2022-08-24T05:47:07.441Z,20.70
2022-08-24T05:49:40.791Z,18.83
2022-08-24T05:52:09.517Z,20.70
2022-08-24T05:54:38.926Z,19.60
2022-08-24T05:57:07.137Z,17.60
2022-08-24T05:59:35.341Z,17.20
2022-08-24T06:02:03.658Z,18.27
2022-08-24T06:04:32.574Z,17.30
2022-08-24T06:07:00.621Z,16.53
2022-08-24T06:09:28.669Z,17.03
2022-08-24T06:11:59.499Z,15.90
2022-08-24T06:14:28.057Z,17.27
2022-08-24T06:16:56.399Z,16.60
2022-08-24T06:19:27.454Z,16.10
2022-08-24T06:21:56.576Z,16.63
2022-08-24T06:24:45.328Z,15.97
2022-08-24T06:27:25.443Z,16.03
2022-08-24T06:29:55.862Z,16.30
2022-08-24T06:32:23.959Z,14.40
2022-08-24T06:34:52.300Z,15.17
2022-08-24T06:37:20.842Z,14.60
2022-08-24T06:39:49.170Z,14.37
2022-08-24T06:42:25.602Z,15.03
2022-08-24T06:44:53.806Z,15.17
2022-08-24T06:47:22.134Z,15.47
2022-08-24T06:49:50.293Z,14.67
2022-08-24T06:52:18.422Z,14.73
2022-08-24T06:54:46.463Z,14.10
2022-08-24T06:57:14.516Z,14.03
2022-08-24T06:59:44.765Z,14.80
2022-08-24T07:02:15.840Z,14.43
2022-08-24T07:04:43.852Z,14.00
2022-08-24T07:07:12.005Z,14.13
2022-08-24T07:09:40.353Z,14.37
2022-08-24T07:12:09.109Z,13.77
2022-08-24T07:14:37.157Z,13.20
2022-08-24T07:17:06.721Z,12.50
2022-08-24T07:19:34.762Z,12.23
2022-08-24T07:22:02.748Z,12.00
2022-08-24T07:24:30.814Z,13.53
2022-08-24T07:26:59.084Z,12.13
2022-08-24T07:32:16.578Z,11.83
2022-08-24T07:34:44.649Z,13.37
2022-08-24T07:37:12.858Z,12.27
2022-08-24T07:39:40.947Z,14.33
2022-08-24T07:42:13.775Z,14.50
2022-08-24T07:44:44.451Z,13.67
2022-08-24T07:47:36.914Z,14.20
2022-08-24T07:50:02.174Z,13.37
2022-08-24T07:52:31.260Z,14.77
2022-08-24T07:54:59.745Z,14.30
2022-08-24T07:57:28.038Z,14.50
2022-08-24T07:59:56.202Z,13.10
2022-08-24T08:02:25.015Z,13.57
2022-08-24T08:04:58.166Z,12.73
2022-08-24T08:07:28.545Z,12.57
2022-08-24T08:09:57.686Z,12.67
2022-08-24T08:12:25.717Z,12.33
2022-08-24T08:14:53.745Z,12.33
2022-08-24T08:17:21.799Z,12.33
2022-08-24T08:19:49.914Z,13.43
2022-08-24T08:22:35.888Z,12.23
2022-08-24T08:25:08.026Z,12.73
2022-08-24T08:27:36.805Z,12.80
2022-08-24T08:30:06.408Z,12.40
2022-08-24T08:32:34.588Z,12.70
2022-08-24T08:35:02.804Z,13.23
2022-08-24T08:37:31.204Z,12.87
2022-08-24T08:39:59.624Z,12.67
2022-08-24T08:42:57.424Z,13.23
2022-08-24T08:45:44.887Z,12.27
2022-08-24T08:48:44.254Z,11.97
2022-08-24T08:51:54.049Z,12.33
2022-08-24T08:54:34.946Z,11.80
2022-08-24T08:57:19.950Z,12.90
2022-08-24T09:00:15.728Z,11.87
2022-08-24T09:03:21.673Z,11.67
2022-08-24T09:06:10.283Z,11.52
2022-08-24T09:08:54.184Z,12.70
2022-08-24T09:11:36.398Z,13.10
2022-08-24T09:14:42.642Z,12.98
2022-08-24T09:17:38.664Z,12.60
2022-08-24T09:20:28.961Z,12.57
2022-08-24T09:23:10.665Z,12.73
2022-08-24T09:25:47.422Z,12.70
2022-08-24T09:28:34.508Z,14.05
2022-08-24T09:31:20.168Z,12.45
2022-08-24T09:34:07.167Z,12.45
2022-08-24T09:36:47.735Z,12.70
2022-08-24T09:39:38.454Z,13.13
2022-08-24T09:42:45.877Z,12.75
2022-08-24T09:45:52.456Z,12.00
2022-08-24T09:48:53.578Z,12.55
2022-08-24T09:52:01.340Z,11.95
2022-08-24T09:54:57.091Z,12.88
2022-08-24T09:57:59.534Z,12.40
2022-08-24T10:00:31.316Z,11.07
2022-08-24T10:03:36.346Z,11.32
2022-08-24T10:06:21.565Z,10.93
2022-08-24T10:09:02.788Z,11.35
2022-08-24T10:11:43.814Z,12.18
2022-08-24T10:14:19.885Z,11.43
2022-08-24T10:17:04.914Z,10.88
2022-08-24T10:19:48.836Z,11.02
2022-08-24T10:22:29.226Z,11.90
2022-08-24T10:25:28.194Z,12.20
2022-08-24T10:28:04.352Z,11.52
2022-08-24T10:30:58.475Z,12.18
2022-08-24T10:33:29.562Z,11.95
2022-08-24T10:36:20.857Z,10.50
2022-08-24T10:39:09.097Z,10.38
2022-08-24T10:42:39.482Z,10.90
2022-08-24T10:45:26.345Z,11.52
2022-08-24T10:48:15.090Z,11.95
2022-08-24T10:50:55.933Z,10.40
2022-08-24T10:53:27.300Z,10.07
2022-08-24T10:56:06.525Z,10.02
2022-08-24T10:59:03.457Z,9.77
2022-08-24T11:01:34.636Z,8.82
2022-08-24T11:04:09.635Z,9.63
2022-08-24T11:06:40.203Z,8.65
2022-08-24T11:09:10.886Z,8.38
2022-08-24T11:11:41.494Z,9.35
2022-08-24T11:14:25.293Z,8.70
2022-08-24T11:16:57.520Z,8.63
2022-08-24T11:19:34.979Z,10.07
2022-08-24T11:22:06.121Z,8.75
2022-08-24T11:24:43.560Z,9.38
2022-08-24T11:27:27.067Z,9.70
2022-08-24T11:29:59.295Z,8.88
2022-08-24T11:32:31.098Z,8.13
2022-08-24T11:35:03.449Z,8.68
2022-08-24T11:37:38.989Z,8.35
2022-08-24T11:40:08.879Z,8.57
2022-08-24T11:42:47.177Z,8.40
2022-08-24T11:45:24.534Z,8.32
2022-08-24T11:48:05.432Z,7.75
2022-08-24T11:50:40.550Z,8.02
2022-08-24T11:53:17.905Z,7.93
2022-08-24T11:56:00.097Z,7.85
2022-08-24T11:58:44.397Z,7.93
2022-08-24T12:01:19.847Z,8.07
2022-08-24T12:04:07.740Z,8.68
2022-08-24T12:06:51.054Z,8.13
2022-08-24T12:09:40.602Z,8.75
2022-08-24T12:12:19.952Z,8.02
2022-08-24T12:15:00.293Z,9.02
2022-08-24T12:17:34.977Z,9.38
2022-08-24T12:20:06.567Z,8.70
2022-08-24T12:22:35.047Z,8.68
2022-08-24T12:25:25.881Z,9.07
2022-08-24T12:27:55.246Z,8.15
2022-08-24T12:30:23.850Z,8.15
2022-08-24T12:32:57.935Z,8.48
2022-08-24T12:35:31.058Z,7.85
2022-08-24T12:38:02.909Z,7.88
2022-08-24T12:40:34.223Z,7.97
2022-08-24T12:43:06.696Z,7.65
2022-08-24T12:45:35.520Z,7.72
2022-08-24T12:48:12.561Z,7.28
2022-08-24T12:50:48.861Z,7.07
2022-08-24T12:53:42.750Z,6.85
2022-08-24T12:56:42.149Z,7.15
2022-08-24T12:59:21.217Z,7.32
2022-08-24T13:01:59.206Z,7.88
2022-08-24T13:05:02.878Z,7.18
2022-08-24T13:07:33.677Z,7.15
2022-08-24T13:10:14.565Z,6.75
2022-08-24T13:13:09.355Z,7.28
2022-08-24T13:16:08.032Z,7.32
2022-08-24T13:19:12.645Z,7.78
2022-08-24T13:21:52.568Z,5.85
2022-08-24T13:25:04.756Z,6.38
2022-08-24T13:28:05.792Z,6.70
2022-08-24T13:30:53.568Z,6.60
2022-08-24T13:33:30.280Z,6.35
2022-08-24T13:36:07.585Z,7.07
2022-08-24T13:39:09.095Z,7.13
2022-08-24T13:41:50.565Z,7.35
2022-08-24T13:44:28.144Z,6.53
2022-08-24T13:47:08.631Z,14.40
2022-08-24T13:49:52.423Z,12.82
2022-08-24T13:52:30.233Z,11.65
2022-08-24T13:55:19.282Z,10.93
2022-08-24T13:57:53.047Z,12.32
2022-08-24T14:00:40.488Z,11.80
2022-08-24T14:03:27.469Z,11.75
2022-08-24T14:06:00.389Z,12.38
2022-08-24T14:08:48.626Z,11.85
2022-08-24T14:11:22.226Z,12.02
2022-08-24T14:14:05.322Z,26.40
2022-08-24T14:17:07.315Z,20.83
2022-08-24T14:19:58.543Z,16.48
2022-08-24T14:22:35.635Z,13.73
2022-08-24T14:25:19.853Z,13.80
2022-08-24T14:27:53.374Z,12.63
2022-08-24T14:30:44.846Z,12.73
2022-08-24T14:33:27.302Z,11.90
2022-08-24T14:36:16.541Z,11.82
2022-08-24T14:38:56.794Z,11.73
2022-08-24T14:41:41.386Z,12.50
2022-08-24T14:44:19.841Z,12.38
2022-08-24T14:46:59.849Z,11.52
2022-08-24T14:49:36.527Z,11.35
2022-08-24T14:52:37.003Z,11.48
2022-08-24T14:55:12.884Z,12.00
2022-08-24T14:58:07.920Z,11.48
2022-08-24T15:00:59.807Z,11.50
2022-08-24T15:04:00.955Z,10.93
2022-08-24T15:06:38.515Z,11.13
2022-08-24T15:09:09.654Z,10.85
2022-08-24T15:11:40.438Z,11.23
2022-08-24T15:14:15.187Z,11.40
2022-08-24T15:17:00.154Z,11.15
2022-08-24T15:19:34.898Z,10.20
2022-08-24T15:22:07.339Z,11.13
2022-08-24T15:24:42.930Z,9.85
2022-08-24T15:27:19.886Z,9.38
2022-08-24T15:29:53.408Z,10.05
2022-08-24T15:32:28.300Z,9.63
2022-08-24T15:34:59.232Z,8.80
2022-08-24T15:37:32.813Z,7.63
2022-08-24T15:40:02.405Z,7.20
2022-08-24T15:42:32.832Z,6.38
2022-08-24T15:45:02.935Z,6.72
2022-08-24T15:47:34.601Z,6.43
2022-08-24T15:50:06.394Z,6.10
2022-08-24T15:52:45.773Z,5.63
2022-08-24T15:55:35.423Z,5.72
2022-08-24T15:58:30.750Z,6.50
2022-08-24T16:01:37.221Z,5.68
2022-08-24T16:04:13.850Z,4.70
2022-08-24T16:06:45.228Z,4.40
2022-08-24T16:09:37.544Z,4.90
2022-08-24T16:12:09.944Z,5.68
2022-08-24T16:14:47.302Z,4.65
2022-08-24T16:17:38.621Z,5.05
2022-08-24T16:20:12.899Z,5.00
2022-08-24T16:22:57.068Z,5.20
2022-08-24T16:25:32.118Z,5.45
2022-08-24T16:28:07.666Z,5.00
2022-08-24T16:30:51.162Z,4.70
2022-08-24T16:33:43.647Z,4.53
2022-08-24T16:36:18.540Z,4.70
2022-08-24T16:38:49.249Z,4.15
2022-08-24T16:41:19.503Z,4.15
2022-08-24T16:43:48.027Z,4.50
2022-08-24T16:46:21.034Z,7.93
2022-08-24T16:48:49.197Z,6.25
2022-08-24T16:51:18.624Z,7.45
2022-08-24T16:53:46.633Z,7.20
2022-08-24T16:56:16.821Z,6.32
2022-08-24T16:58:47.310Z,5.78
2022-08-24T17:01:16.372Z,5.75
2022-08-24T17:03:44.744Z,4.82
2022-08-24T17:06:13.215Z,4.22
2022-08-24T17:08:42.866Z,4.57
2022-08-24T17:11:10.929Z,3.70
2022-08-24T17:13:49.449Z,3.78
2022-08-24T17:16:18.745Z,3.92
2022-08-24T17:18:46.851Z,4.03
2022-08-24T17:21:14.903Z,3.90
2022-08-24T17:23:45.022Z,4.07
2022-08-24T17:26:20.424Z,3.28
2022-08-24T17:28:51.640Z,3.30
2022-08-24T17:31:19.757Z,3.50
2022-08-24T17:33:47.853Z,3.20
2022-08-24T17:36:16.766Z,3.38
2022-08-24T17:38:51.736Z,3.20
2022-08-24T17:41:24.068Z,3.47
2022-08-24T17:43:52.357Z,3.40
2022-08-24T17:46:20.995Z,2.73
2022-08-24T17:48:49.849Z,2.77
2022-08-24T17:51:18.401Z,3.30
2022-08-24T17:53:47.790Z,2.90
2022-08-24T17:56:17.690Z,3.00
2022-08-24T17:59:03.486Z,2.43
2022-08-24T18:01:32.359Z,2.90
2022-08-24T18:04:00.444Z,2.80
2022-08-24T18:06:29.342Z,2.90
2022-08-24T18:09:04.855Z,2.83
2022-08-24T18:11:33.367Z,2.60
2022-08-24T18:14:02.240Z,2.63
2022-08-24T18:16:30.369Z,2.80
2022-08-24T18:18:59.691Z,2.77
2022-08-24T18:21:27.858Z,2.80
2022-08-24T18:23:56.103Z,2.60
2022-08-24T18:26:28.485Z,2.73
2022-08-24T18:29:00.250Z,3.03
2022-08-24T18:31:30.401Z,2.80
2022-08-24T18:33:58.485Z,3.47
2022-08-24T18:36:26.530Z,2.80
2022-08-24T18:38:54.541Z,3.07
2022-08-24T18:41:27.472Z,3.63
2022-08-24T18:43:56.927Z,3.13
2022-08-24T18:46:26.001Z,3.03
2022-08-24T18:48:54.067Z,3.07
2022-08-24T18:51:24.017Z,3.00
2022-08-24T18:54:02.306Z,2.77
2022-08-24T18:56:30.411Z,2.80
2022-08-24T18:58:59.855Z,2.97
2022-08-24T19:01:29.512Z,2.83
2022-08-24T19:03:57.978Z,3.20
2022-08-24T19:06:26.128Z,2.87
2022-08-24T19:08:54.281Z,2.73
2022-08-24T19:11:24.868Z,3.07
2022-08-24T19:13:52.882Z,2.97
2022-08-24T19:16:22.644Z,2.80
2022-08-24T19:18:52.063Z,2.77
2022-08-24T19:21:20.600Z,3.20
2022-08-24T19:23:48.795Z,3.00
2022-08-24T19:26:16.862Z,3.10
2022-08-24T19:28:45.218Z,3.13
2022-08-24T19:31:15.030Z,3.23
2022-08-24T19:33:49.683Z,3.10
2022-08-24T19:36:18.158Z,3.00
2022-08-24T19:38:47.493Z,2.93
2022-08-24T19:41:17.643Z,3.37
2022-08-24T19:44:06.441Z,3.30
2022-08-24T19:46:34.615Z,3.33
2022-08-24T19:49:04.181Z,3.63
2022-08-24T19:51:32.612Z,3.10
2022-08-24T19:54:01.338Z,3.00
2022-08-24T19:56:29.403Z,3.47
2022-08-24T19:59:02.844Z,3.80
2022-08-24T20:01:34.651Z,3.87
2022-08-24T20:04:06.305Z,3.37
2022-08-24T20:06:35.492Z,3.57
2022-08-24T20:09:04.729Z,3.43
2022-08-24T20:11:32.817Z,3.50
2022-08-24T20:14:02.511Z,3.83
2022-08-24T20:16:35.241Z,3.60
2022-08-24T20:19:05.218Z,3.57
2022-08-24T20:21:33.413Z,3.57
2022-08-24T20:24:02.410Z,3.27
2022-08-24T20:26:35.724Z,3.67
2022-08-24T20:29:04.605Z,4.00
2022-08-24T20:31:32.854Z,3.80
2022-08-24T20:34:01.041Z,3.70
2022-08-24T20:36:36.273Z,4.23
2022-08-24T20:39:07.600Z,3.57
2022-08-24T20:41:35.657Z,3.50
2022-08-24T20:44:05.257Z,3.60
2022-08-24T20:46:33.358Z,3.50
2022-08-24T20:49:01.546Z,3.80
2022-08-24T20:51:31.018Z,3.70
2022-08-24T20:54:01.398Z,4.00
2022-08-24T20:56:31.935Z,4.10
2022-08-24T20:59:01.781Z,3.73
2022-08-24T21:01:30.073Z,3.80
2022-08-24T21:04:02.766Z,3.90
2022-08-24T21:06:35.079Z,4.20
2022-08-24T21:09:04.842Z,3.67
2022-08-24T21:11:33.359Z,3.43
2022-08-24T21:14:02.404Z,3.93
2022-08-24T21:16:30.609Z,3.60
2022-08-24T21:18:58.700Z,4.10
2022-08-24T21:21:27.877Z,4.30
2022-08-24T21:23:57.289Z,3.83
2022-08-24T21:26:28.359Z,3.87
2022-08-24T21:28:58.066Z,3.47
2022-08-24T21:31:26.459Z,3.93
2022-08-24T21:34:12.915Z,3.93
2022-08-24T21:36:41.936Z,4.17
2022-08-24T21:39:11.429Z,3.67
2022-08-24T21:41:39.566Z,3.87
2022-08-24T21:44:07.726Z,4.53
2022-08-24T21:46:38.471Z,3.60
2022-08-24T21:49:07.047Z,3.87
2022-08-24T21:51:41.719Z,3.57
2022-08-24T21:54:11.338Z,3.87
2022-08-24T21:56:41.965Z,4.03
2022-08-24T21:59:10.394Z,4.07
2022-08-24T22:01:38.712Z,3.80
2022-08-24T22:04:07.995Z,3.70
2022-08-24T22:06:42.298Z,3.77
2022-08-24T22:09:11.859Z,4.00
2022-08-24T22:11:39.923Z,3.73
2022-08-24T22:14:08.023Z,3.83
2022-08-24T22:16:36.873Z,3.93
2022-08-24T22:19:05.980Z,3.83
2022-08-24T22:21:36.111Z,3.80
2022-08-24T22:24:04.972Z,3.73
2022-08-24T22:26:35.181Z,3.73
2022-08-24T22:29:05.004Z,3.80
2022-08-24T22:31:36.236Z,3.40
2022-08-24T22:34:07.519Z,3.77
2022-08-24T22:36:35.925Z,4.20
2022-08-24T22:39:05.425Z,3.93
2022-08-24T22:41:34.981Z,3.90
2022-08-24T22:44:21.547Z,4.13
2022-08-24T22:46:52.068Z,3.67
2022-08-24T22:49:22.557Z,4.33
2022-08-24T22:51:51.149Z,4.23
2022-08-24T22:54:19.963Z,4.23
2022-08-24T22:56:51.781Z,4.10
2022-08-24T22:59:22.305Z,3.83
2022-08-24T23:01:51.949Z,3.80
2022-08-24T23:04:23.420Z,3.80
2022-08-24T23:06:51.831Z,3.73
2022-08-24T23:09:19.904Z,4.17
2022-08-24T23:11:49.320Z,3.70
2022-08-24T23:14:17.345Z,3.60
2022-08-24T23:16:47.872Z,3.37
2022-08-24T23:19:40.649Z,4.07
2022-08-24T23:22:11.595Z,3.73
2022-08-24T23:24:40.554Z,3.90
2022-08-24T23:27:12.283Z,3.43
2022-08-24T23:29:40.983Z,3.67
2022-08-24T23:32:09.197Z,3.50
2022-08-24T23:34:37.555Z,3.33
2022-08-24T23:37:05.885Z,3.37
2022-08-24T23:39:33.989Z,3.73
2022-08-24T23:42:02.024Z,3.40
2022-08-24T23:44:31.660Z,3.87
2022-08-24T23:47:00.067Z,3.60
2022-08-24T23:49:31.526Z,3.80
2022-08-24T23:52:01.281Z,4.13
2022-08-24T23:54:29.517Z,3.80
2022-08-24T23:56:57.641Z,3.73
2022-08-24T23:59:29.195Z,4.00
